createdAt,value
2019-02-14T00:05:05.234Z,102939.04
2019-02-14T00:07:36.134Z,102938.83
2019-02-14T00:10:45.492Z,102946.84
2019-02-14T00:13:14.852Z,102944.39
2019-02-14T00:15:44.082Z,102948.20
2019-02-14T00:18:32.658Z,102950.59
2019-02-14T00:21:21.232Z,102962.41
2019-02-14T00:23:50.566Z,102956.83
2019-02-14T00:26:39.122Z,102951.05
2019-02-14T00:29:27.825Z,102954.84
2019-02-14T00:32:16.416Z,102950.36
2019-02-14T00:35:05.483Z,102944.66
2019-02-14T00:37:34.723Z,102938.08
2019-02-14T00:40:23.367Z,102944.95
2019-02-14T00:43:11.932Z,102939.70
2019-02-14T00:46:00.507Z,102935.49
2019-02-14T00:48:49.097Z,102938.16
2019-02-14T00:51:18.336Z,102947.83
2019-02-14T00:54:06.916Z,102946.14
2019-02-14T00:56:36.214Z,102941.71
2019-02-14T00:59:05.463Z,102947.98
2019-02-14T01:05:03.030Z,102944.17
2019-02-14T01:07:32.253Z,102944.73
2019-02-14T01:10:20.841Z,102943.47
2019-02-14T01:12:50.084Z,102939.09
2019-02-14T01:17:58.729Z,102943.12
2019-02-14T01:20:27.995Z,102938.59
2019-02-14T01:22:57.243Z,102942.44
2019-02-14T01:25:45.826Z,102936.20
2019-02-14T01:31:24.092Z,102937.61
2019-02-14T01:33:53.628Z,102937.24
2019-02-14T01:36:22.867Z,102938.05
2019-02-14T01:39:11.442Z,102929.45
2019-02-14T01:41:40.677Z,102937.15
2019-02-14T01:44:09.951Z,102933.60
2019-02-14T01:46:39.188Z,102935.23
2019-02-14T01:49:08.435Z,102934.08
2019-02-14T01:51:37.682Z,102930.44
2019-02-14T01:54:06.970Z,102932.16
2019-02-14T01:56:36.225Z,102931.98
2019-02-14T01:59:24.815Z,102933.46
2019-02-14T02:01:54.042Z,102938.00
2019-02-14T02:04:42.613Z,102936.57
2019-02-14T02:07:11.862Z,102933.27
2019-02-14T02:10:00.540Z,102918.20
2019-02-14T02:12:49.229Z,102922.50
2019-02-14T02:15:37.797Z,102924.22
2019-02-14T02:18:07.042Z,102920.08
2019-02-14T02:20:36.270Z,102924.21
2019-02-14T02:23:05.545Z,102918.16
2019-02-14T02:25:34.762Z,102923.84
2019-02-14T02:28:04.008Z,102922.00
2019-02-14T02:30:52.580Z,102921.70
2019-02-14T02:33:21.848Z,102916.16
2019-02-14T02:36:10.454Z,102917.06
2019-02-14T02:38:39.714Z,102922.37
2019-02-14T02:41:08.958Z,102923.11
2019-02-14T02:43:57.566Z,102927.25
2019-02-14T02:46:46.159Z,102926.41
2019-02-14T02:49:15.407Z,102920.13
2019-02-14T02:52:03.979Z,102927.23
2019-02-14T02:54:33.243Z,102921.59
2019-02-14T02:57:02.477Z,102920.21
2019-02-14T02:59:51.076Z,102919.56
2019-02-14T03:02:39.669Z,102923.16
2019-02-14T03:05:28.259Z,102921.90
2019-02-14T03:08:16.829Z,102928.33
2019-02-14T03:10:46.092Z,102930.72
2019-02-14T03:13:15.330Z,102933.75
2019-02-14T03:16:03.987Z,102932.11
2019-02-14T03:18:52.651Z,102928.22
2019-02-14T03:21:41.226Z,102932.28
2019-02-14T03:24:10.480Z,102930.84
2019-02-14T03:26:59.058Z,102924.64
2019-02-14T03:29:28.331Z,102925.57
2019-02-14T03:31:57.575Z,102930.63
2019-02-14T03:34:26.812Z,102926.82
2019-02-14T03:36:56.051Z,102930.25
2019-02-14T03:39:44.654Z,102931.46
2019-02-14T03:42:13.882Z,102933.70
2019-02-14T03:44:43.138Z,102939.41
2019-02-14T03:47:12.353Z,102933.97
2019-02-14T03:49:41.608Z,102936.60
2019-02-14T03:52:10.849Z,102935.04
2019-02-14T03:54:40.091Z,102939.44
2019-02-14T03:57:28.649Z,102937.01
2019-02-14T04:00:17.707Z,102931.45
2019-02-14T04:03:06.258Z,102935.82
2019-02-14T04:05:54.908Z,102932.84
2019-02-14T04:08:24.130Z,102931.59
2019-02-14T04:10:53.375Z,102946.11
2019-02-14T04:13:22.619Z,102943.58
2019-02-14T04:16:11.204Z,102939.27
2019-02-14T04:18:40.449Z,102938.16
2019-02-14T04:21:09.682Z,102937.05
2019-02-14T04:23:58.285Z,102938.47
2019-02-14T04:26:27.520Z,102940.23
2019-02-14T04:29:16.117Z,102940.42
2019-02-14T04:31:45.343Z,102945.13
2019-02-14T04:34:33.946Z,102948.48
2019-02-14T04:37:03.189Z,102945.22
2019-02-14T04:39:32.455Z,102952.72
2019-02-14T04:42:01.727Z,102948.33
2019-02-14T04:45:10.981Z,102946.70
2019-02-14T04:47:40.228Z,102946.28
2019-02-14T04:50:28.820Z,102954.10
2019-02-14T04:56:30.174Z,102959.23
2019-02-14T04:59:18.749Z,102954.38
2019-02-14T05:02:07.376Z,102951.44
2019-02-14T05:04:55.971Z,102952.98
2019-02-14T05:07:25.206Z,102955.84
2019-02-14T05:10:13.783Z,102950.45
2019-02-14T05:13:02.353Z,102948.52
2019-02-14T05:15:50.935Z,102950.59
2019-02-14T05:18:32.370Z,102950.22
2019-02-14T05:21:10.204Z,102945.89
2019-02-14T05:23:39.451Z,102951.82
2019-02-14T05:26:28.085Z,102958.73
2019-02-14T05:28:57.302Z,102962.22
2019-02-14T05:31:45.862Z,102960.12
2019-02-14T05:34:34.436Z,102963.16
2019-02-14T05:37:03.675Z,102965.72
2019-02-14T05:39:32.925Z,102961.27
2019-02-14T05:42:21.488Z,102968.27
2019-02-14T05:45:10.950Z,102972.52
2019-02-14T05:47:59.616Z,102972.42
2019-02-14T05:50:48.202Z,102972.88
2019-02-14T05:53:17.456Z,102974.45
2019-02-14T05:56:06.050Z,102972.72
2019-02-14T05:58:35.288Z,102968.89
2019-02-14T06:04:52.197Z,102976.64
2019-02-14T06:07:21.448Z,102974.61
2019-02-14T06:10:10.510Z,102978.38
2019-02-14T06:12:59.081Z,102980.61
2019-02-14T06:15:28.362Z,102977.31
2019-02-14T06:18:16.943Z,102989.11
2019-02-14T06:20:46.188Z,102979.64
2019-02-14T06:23:15.472Z,102987.78
2019-02-14T06:25:44.735Z,102993.73
2019-02-14T06:28:33.293Z,102988.53
2019-02-14T06:31:02.543Z,102996.52
2019-02-14T06:33:51.125Z,102994.72
2019-02-14T06:36:39.693Z,102997.51
2019-02-14T06:39:21.091Z,103008.39
2019-02-14T06:45:27.857Z,103006.08
2019-02-14T06:48:09.266Z,103010.86
2019-02-14T06:50:50.619Z,103011.76
2019-02-14T06:53:32.322Z,103012.84
2019-02-14T06:56:13.927Z,103018.77
2019-02-14T06:58:43.162Z,103012.63
2019-02-14T07:01:12.414Z,103012.47
2019-02-14T07:03:41.668Z,103013.42
2019-02-14T07:06:10.916Z,103016.45
2019-02-14T07:08:40.153Z,103024.56
2019-02-14T07:11:09.411Z,103029.29
2019-02-14T07:13:38.666Z,103024.65
2019-02-14T07:19:42.132Z,103025.66
2019-02-14T07:22:30.715Z,103030.72
2019-02-14T07:24:59.957Z,103031.77
2019-02-14T07:27:48.540Z,103040.44
2019-02-14T07:30:37.106Z,103033.34
2019-02-14T07:33:25.722Z,103039.35
2019-02-14T07:36:14.323Z,103041.64
2019-02-14T07:38:43.578Z,103042.23
2019-02-14T07:41:32.153Z,103048.03
2019-02-14T07:44:20.777Z,103053.77
2019-02-14T07:47:09.345Z,103050.55
2019-02-14T07:49:38.600Z,103052.05
2019-02-14T07:52:07.841Z,103052.44
2019-02-14T07:54:56.517Z,103047.61
2019-02-14T07:57:45.082Z,103046.36
2019-02-14T08:00:54.366Z,103046.20
2019-02-14T08:03:23.613Z,103046.43
2019-02-14T08:09:19.947Z,103033.17
2019-02-14T08:12:08.493Z,103036.16
2019-02-14T08:14:57.136Z,103028.48
2019-02-14T08:17:45.712Z,103020.11
2019-02-14T08:20:34.277Z,103027.76
2019-02-14T08:23:22.884Z,103029.08
2019-02-14T08:26:11.493Z,103039.38
2019-02-14T08:29:00.101Z,103043.50
2019-02-14T08:31:48.694Z,103038.16
2019-02-14T08:34:17.924Z,103043.11
2019-02-14T08:36:47.163Z,103037.88
2019-02-14T08:39:28.640Z,103034.70
2019-02-14T08:42:10.387Z,103034.77
2019-02-14T08:44:51.475Z,103038.84
2019-02-14T08:47:20.703Z,103043.95
2019-02-14T08:50:09.959Z,103053.30
2019-02-14T08:52:58.574Z,103047.27
2019-02-14T08:55:27.827Z,103042.41
2019-02-14T08:58:16.398Z,103049.55
2019-02-14T09:01:05.046Z,103045.22
2019-02-14T09:03:53.619Z,103049.90
2019-02-14T09:06:42.217Z,103036.73
2019-02-14T09:09:11.483Z,103041.69
2019-02-14T09:11:40.707Z,103044.75
2019-02-14T09:14:09.946Z,103046.69
2019-02-14T09:16:58.532Z,103043.86
2019-02-14T09:19:27.781Z,103043.51
2019-02-14T09:22:16.352Z,103048.77
2019-02-14T09:25:05.611Z,103042.25
2019-02-14T09:27:54.213Z,103038.30
2019-02-14T09:33:21.547Z,103039.73
2019-02-14T09:36:10.116Z,103041.20
2019-02-14T09:38:51.199Z,103043.55
2019-02-14T09:41:20.424Z,103045.92
2019-02-14T09:43:49.654Z,103045.06
2019-02-14T09:46:38.251Z,103041.00
2019-02-14T09:49:07.508Z,103040.80
2019-02-14T09:51:56.085Z,103044.33
2019-02-14T09:54:44.649Z,103047.55
2019-02-14T10:00:49.359Z,103047.23
2019-02-14T10:03:37.970Z,103048.03
2019-02-14T10:06:07.199Z,103047.09
2019-02-14T10:08:37.911Z,103038.14
2019-02-14T10:11:26.549Z,103044.16
2019-02-14T10:13:55.811Z,103044.69
2019-02-14T10:16:44.421Z,103041.00
2019-02-14T10:19:13.655Z,103040.52
2019-02-14T10:22:02.274Z,103041.19
2019-02-14T10:24:31.525Z,103042.88
2019-02-14T10:27:20.160Z,103039.29
2019-02-14T10:30:28.107Z,103037.13
2019-02-14T10:33:16.752Z,103041.48
2019-02-14T10:36:05.365Z,103045.60
2019-02-14T10:38:34.611Z,103047.59
2019-02-14T10:41:03.849Z,103042.42
2019-02-14T10:43:33.125Z,103057.84
2019-02-14T10:46:02.342Z,103058.64
2019-02-14T10:48:31.637Z,103062.28
2019-02-14T10:51:00.925Z,103063.36
2019-02-14T10:54:08.619Z,103061.50
2019-02-14T10:56:57.187Z,103058.50
2019-02-14T10:59:26.439Z,103060.29
2019-02-14T11:02:15.021Z,103060.94
2019-02-14T11:05:03.904Z,103055.33
2019-02-14T11:07:52.424Z,103056.59
2019-02-14T11:10:21.687Z,103053.56
2019-02-14T11:13:10.260Z,103053.98
2019-02-14T11:15:58.835Z,103049.23
2019-02-14T11:18:47.404Z,103051.88
2019-02-14T11:21:36.090Z,103049.87
2019-02-14T11:27:20.213Z,103049.00
2019-02-14T11:29:49.456Z,103042.02
2019-02-14T11:32:38.034Z,103040.58
2019-02-14T11:35:26.703Z,103038.80
2019-02-14T11:37:55.939Z,103034.03
2019-02-14T11:40:37.816Z,103029.02
2019-02-14T11:43:07.066Z,103025.63
2019-02-14T11:45:55.659Z,103025.20
2019-02-14T11:48:44.243Z,103017.60
2019-02-14T11:51:13.486Z,103015.05
2019-02-14T11:54:02.079Z,103009.20
2019-02-14T11:56:50.705Z,103009.50
2019-02-14T11:59:19.956Z,103002.99
2019-02-14T12:01:55.190Z,103003.52
2019-02-14T12:04:58.641Z,102993.66
2019-02-14T12:07:47.241Z,103002.39
2019-02-14T12:10:16.511Z,103000.86
2019-02-14T12:13:05.172Z,102992.00
2019-02-14T12:15:53.757Z,102981.81
2019-02-14T12:18:24.137Z,102973.86
2019-02-14T12:21:13.037Z,102972.69
2019-02-14T12:23:42.336Z,102967.61
2019-02-14T12:26:30.928Z,102967.34
2019-02-14T12:29:19.564Z,102968.12
2019-02-14T12:31:48.824Z,102958.71
2019-02-14T12:34:18.059Z,102950.98
2019-02-14T12:36:47.317Z,102945.52
2019-02-14T12:39:16.573Z,102939.94
2019-02-14T12:41:45.826Z,102942.53
2019-02-14T12:44:34.430Z,102939.82
2019-02-14T12:47:23.021Z,102941.61
2019-02-14T12:52:59.906Z,102934.80
2019-02-14T12:55:48.491Z,102934.44
2019-02-14T12:58:17.739Z,102932.50
2019-02-14T13:01:06.336Z,102932.00
2019-02-14T13:03:54.968Z,102931.41
2019-02-14T13:06:43.561Z,102930.88
2019-02-14T13:09:19.634Z,102933.50
2019-02-14T13:12:22.204Z,102934.98
2019-02-14T13:14:51.431Z,102936.69
2019-02-14T13:20:53.219Z,102931.30
2019-02-14T13:23:41.845Z,102932.11
2019-02-14T13:26:11.096Z,102939.13
2019-02-14T13:28:59.702Z,102941.90
2019-02-14T13:31:48.267Z,102942.62
2019-02-14T13:34:36.873Z,102934.86
2019-02-14T13:37:06.176Z,102937.14
2019-02-14T13:39:47.473Z,102935.36
2019-02-14T13:42:28.827Z,102937.47
2019-02-14T13:45:10.524Z,102929.28
2019-02-14T13:47:39.756Z,102929.52
2019-02-14T13:50:49.078Z,102921.21
2019-02-14T13:53:37.722Z,102924.50
2019-02-14T13:56:26.361Z,102916.38
2019-02-14T13:59:14.997Z,102915.48
2019-02-14T14:04:51.827Z,102910.34
2019-02-14T14:07:21.097Z,102911.10
2019-02-14T14:10:09.741Z,102907.27
2019-02-14T14:12:58.324Z,102904.59
2019-02-14T14:15:46.933Z,102899.67
2019-02-14T14:18:16.189Z,102893.75
2019-02-14T14:21:04.776Z,102890.22
2019-02-14T14:23:53.352Z,102892.78
2019-02-14T14:26:41.961Z,102884.02
2019-02-14T14:29:11.179Z,102875.62
2019-02-14T14:31:40.430Z,102875.45
2019-02-14T14:34:29.026Z,102876.85
2019-02-14T14:37:17.603Z,102869.00
2019-02-14T14:39:58.767Z,102868.93
2019-02-14T14:42:41.745Z,102865.89
2019-02-14T14:51:23.795Z,102850.88
2019-02-14T14:54:12.398Z,102850.76
2019-02-14T14:57:01.051Z,102857.98
2019-02-14T14:59:49.706Z,102852.69
2019-02-14T15:02:38.359Z,102854.16
2019-02-14T15:05:26.960Z,102851.94
2019-02-14T15:07:56.216Z,102854.77
2019-02-14T15:10:44.791Z,102850.58
2019-02-14T15:13:14.033Z,102848.38
2019-02-14T15:15:43.272Z,102840.37
2019-02-14T15:18:31.882Z,102834.34
2019-02-14T15:21:20.466Z,102833.02
2019-02-14T15:24:09.035Z,102837.69
2019-02-14T15:26:57.614Z,102830.14
2019-02-14T15:29:46.222Z,102824.44
2019-02-14T15:32:34.816Z,102823.91
2019-02-14T15:35:23.431Z,102820.52
2019-02-14T15:38:12.052Z,102822.78
2019-02-14T15:40:53.765Z,102822.34
2019-02-14T15:43:23.018Z,102818.87
2019-02-14T15:45:52.256Z,102819.62
2019-02-14T15:48:40.861Z,102816.09
2019-02-14T15:51:10.109Z,102812.87
2019-02-14T15:53:41.353Z,102813.00
2019-02-14T15:56:48.787Z,102806.48
2019-02-14T15:59:37.380Z,102802.98
2019-02-14T16:02:08.478Z,102801.25
2019-02-14T16:05:16.885Z,102797.11
2019-02-14T16:08:06.068Z,102800.45
2019-02-14T16:10:55.910Z,102797.88
2019-02-14T16:14:04.088Z,102799.37
2019-02-14T16:16:33.331Z,102811.08
2019-02-14T16:19:21.927Z,102799.87
2019-02-14T16:22:10.518Z,102803.53
2019-02-14T16:24:59.108Z,102799.79
2019-02-14T16:27:48.326Z,102803.03
2019-02-14T16:30:37.761Z,102797.50
2019-02-14T16:33:26.343Z,102805.94
2019-02-14T16:35:55.651Z,102793.72
2019-02-14T16:38:24.928Z,102802.02
2019-02-14T16:40:54.187Z,102794.61
2019-02-14T16:43:42.758Z,102798.20
2019-02-14T16:46:31.365Z,102795.00
2019-02-14T16:49:19.925Z,102792.13
2019-02-14T16:54:47.471Z,102790.78
2019-02-14T16:57:36.099Z,102794.31
2019-02-14T17:00:24.683Z,102795.66
2019-02-14T17:02:53.951Z,102793.73
2019-02-14T17:05:42.553Z,102788.23
2019-02-14T17:08:11.828Z,102786.41
2019-02-14T17:11:00.463Z,102791.88
2019-02-14T17:13:49.067Z,102796.64
2019-02-14T17:16:18.312Z,102793.20
2019-02-14T17:19:06.911Z,102799.89
2019-02-14T17:21:36.266Z,102799.25
2019-02-14T17:24:24.838Z,102802.52
2019-02-14T17:27:13.466Z,102799.02
2019-02-14T17:30:02.033Z,102804.72
2019-02-14T17:32:31.273Z,102802.20
2019-02-14T17:35:00.513Z,102793.81
2019-02-14T17:37:49.182Z,102793.13
2019-02-14T17:40:30.682Z,102798.27
2019-02-14T17:43:12.505Z,102802.00
2019-02-14T17:45:41.753Z,102805.02
2019-02-14T17:48:30.344Z,102798.94
2019-02-14T17:50:59.591Z,102797.45
2019-02-14T17:53:48.205Z,102800.66
2019-02-14T17:56:17.462Z,102794.30
2019-02-14T17:59:06.035Z,102798.36
2019-02-14T18:05:02.832Z,102798.02
2019-02-14T18:07:51.399Z,102794.30
2019-02-14T18:10:39.974Z,102797.30
2019-02-14T18:13:28.575Z,102792.92
2019-02-14T18:15:57.852Z,102798.66
2019-02-14T18:18:46.479Z,102798.93
2019-02-14T18:21:35.108Z,102800.28
2019-02-14T18:24:23.695Z,102800.41
2019-02-14T18:27:12.339Z,102808.29
2019-02-14T18:30:00.399Z,102811.48
2019-02-14T18:32:48.973Z,102806.23
2019-02-14T18:38:50.566Z,102808.84
2019-02-14T18:41:39.127Z,102808.27
2019-02-14T18:44:08.393Z,102808.56
2019-02-14T18:46:37.689Z,102799.71
2019-02-14T18:49:06.876Z,102797.05
2019-02-14T18:51:55.445Z,102800.62
2019-02-14T18:54:24.698Z,102798.70
2019-02-14T18:57:13.263Z,102797.45
2019-02-14T19:00:01.841Z,102800.25
2019-02-14T19:02:50.448Z,102789.00
2019-02-14T19:05:39.056Z,102791.81
2019-02-14T19:08:27.641Z,102787.07
2019-02-14T19:10:56.902Z,102789.75
2019-02-14T19:13:45.500Z,102787.60
2019-02-14T19:16:14.749Z,102783.06
2019-02-14T19:19:03.392Z,102780.07
2019-02-14T19:21:52.004Z,102782.30
2019-02-14T19:24:21.248Z,102788.25
2019-02-14T19:27:09.837Z,102797.98
2019-02-14T19:29:58.457Z,102791.99
2019-02-14T19:32:47.099Z,102787.05
2019-02-14T19:35:35.704Z,102796.11
2019-02-14T19:38:24.615Z,102793.99
2019-02-14T19:41:06.251Z,102790.13
2019-02-14T19:43:35.496Z,102786.16
2019-02-14T19:46:24.101Z,102787.56
2019-02-14T19:49:12.685Z,102783.88
2019-02-14T19:52:01.271Z,102779.25
2019-02-14T19:54:49.869Z,102782.25
2019-02-14T19:57:38.484Z,102782.39
2019-02-14T20:00:27.040Z,102779.11
2019-02-14T20:03:15.632Z,102779.68
2019-02-14T20:06:04.199Z,102775.90
2019-02-14T20:08:33.453Z,102777.78
2019-02-14T20:11:02.695Z,102771.56
2019-02-14T20:13:51.284Z,102781.77
2019-02-14T20:16:20.515Z,102784.63
2019-02-14T20:19:09.133Z,102780.83
2019-02-14T20:21:57.724Z,102768.45
2019-02-14T20:24:46.329Z,102772.09
2019-02-14T20:27:34.914Z,102768.61
2019-02-14T20:30:44.171Z,102767.50
2019-02-14T20:33:13.467Z,102766.88
2019-02-14T20:35:42.693Z,102767.31
2019-02-14T20:38:31.282Z,102764.62
2019-02-14T20:41:12.775Z,102765.22
2019-02-14T20:43:53.896Z,102770.88
2019-02-14T20:46:23.137Z,102769.52
2019-02-14T20:49:11.761Z,102763.73
2019-02-14T20:51:41.025Z,102760.02
2019-02-14T20:54:29.604Z,102762.67
2019-02-14T20:56:58.856Z,102761.53
2019-02-14T20:59:47.443Z,102761.92
2019-02-14T21:02:18.343Z,102761.22
2019-02-14T21:05:06.931Z,102762.92
2019-02-14T21:07:55.620Z,102762.58
2019-02-14T21:10:24.846Z,102761.27
2019-02-14T21:13:13.529Z,102750.67
2019-02-14T21:15:42.768Z,102748.73
2019-02-14T21:18:12.004Z,102751.48
2019-02-14T21:21:00.641Z,102747.47
2019-02-14T21:23:49.209Z,102751.73
2019-02-14T21:26:37.799Z,102744.52
2019-02-14T21:29:07.030Z,102748.20
2019-02-14T21:31:36.260Z,102744.34
2019-02-14T21:34:24.842Z,102748.38
2019-02-14T21:36:54.068Z,102744.20
2019-02-14T21:39:23.327Z,102740.19
2019-02-14T21:42:20.714Z,102743.84
2019-02-14T21:45:21.320Z,102734.16
2019-02-14T21:48:09.893Z,102728.63
2019-02-14T21:50:58.472Z,102733.20
2019-02-14T21:53:47.119Z,102735.56
2019-02-14T21:56:16.374Z,102734.69
2019-02-14T21:59:04.976Z,102737.77
2019-02-14T22:01:34.221Z,102743.79
2019-02-14T22:07:34.729Z,102738.37
2019-02-14T22:10:13.874Z,102742.13
2019-02-14T22:12:44.189Z,102743.02
2019-02-14T22:15:52.575Z,102740.06
2019-02-14T22:18:40.983Z,102746.36
2019-02-14T22:21:29.560Z,102744.01
2019-02-14T22:24:18.145Z,102737.36
2019-02-14T22:26:47.402Z,102734.41
2019-02-14T22:29:35.994Z,102735.89
2019-02-14T22:32:24.595Z,102734.55
2019-02-14T22:35:13.243Z,102742.03
2019-02-14T22:38:01.819Z,102745.98
2019-02-14T22:40:43.486Z,102747.82
2019-02-14T22:43:24.778Z,102748.36
2019-02-14T22:46:06.299Z,102744.04
2019-02-14T22:48:35.538Z,102744.80
2019-02-14T22:51:24.117Z,102746.58
2019-02-14T22:54:12.723Z,102748.94
2019-02-14T22:56:41.966Z,102743.31
2019-02-14T22:59:30.556Z,102745.80
2019-02-14T23:01:59.780Z,102740.72
2019-02-14T23:04:48.374Z,102740.37
2019-02-14T23:07:37.027Z,102739.19
2019-02-14T23:10:25.604Z,102742.02
2019-02-14T23:12:56.091Z,102742.47
2019-02-14T23:16:04.487Z,102739.45
2019-02-14T23:18:53.086Z,102739.42
2019-02-14T23:21:41.630Z,102738.48
2019-02-14T23:24:30.221Z,102745.91
2019-02-14T23:26:59.447Z,102743.34
2019-02-14T23:29:28.756Z,102746.73
2019-02-14T23:32:17.310Z,102752.59
2019-02-14T23:35:05.984Z,102751.61
2019-02-14T23:37:54.540Z,102755.19
2019-02-14T23:40:35.902Z,102748.27
2019-02-14T23:43:07.129Z,102752.44
2019-02-14T23:45:55.284Z,102751.80
2019-02-14T23:48:24.523Z,102749.95
2019-02-14T23:51:13.111Z,102751.48
2019-02-14T23:53:42.346Z,102748.15
2019-02-14T23:56:30.915Z,102751.63
2019-02-14T23:59:19.573Z,102756.73
